Vremea mâine în Budești - Romania

Vrei sa afli care e starea vremii acum in Calarasi - Romania? Dorim sa iti furnizam starea vremii pentru Calarasi - Romania. Starea vremii Calarasi - Romania pentru astazi.

Vremea mâine în Budești

Temperatura minimă:
11.8 °C

Temperatura maximă:
25.1 °C

Mâine va fi: Senin
Precipitații: 0 %
Umiditate: 68%
Viteza maximă vânt mâine:
15.1 km/h

Evoluția vremii in Budești pe ore mâine

Ora: 08:00
Temperatura: °C
Sansa de precipitatii: %
Ora Descriere Temp Se simte Precipitatii Umiditate Vant
00:00Senin13.1°11.8°0%79%SE 14.8 KM/H
01:00Senin12.7°11.6°0%82%SSE 12.2 KM/H
02:00Senin12.4°11.6°0%83%SSE 9.4 KM/H
03:00Senin12.2°11.6°0%83%SE 7.9 KM/H
04:00Senin12.1°11.7°0%82%SE 6.8 KM/H
05:00Senin11.9°11.4°0%82%SE 7.2 KM/H
06:00Senin11.8°11.4°0%81%SE 6.8 KM/H
07:00Senin12.9°12.7°0%79%SSE 6.1 KM/H
08:00Senin14.8°14.9°0%72%SSE 6.5 KM/H
09:00Senin17.1°17.1°0%65%SSE 6.5 KM/H
10:00Senin19.3°19.3°0%61%SE 7.6 KM/H
11:00Senin21.2°21.2°0%57%SE 8.3 KM/H
12:00Senin22.8°24.7°0%53%SE 9.4 KM/H
13:00Senin23.8°25.1°0%50%SE 10.1 KM/H
14:00Senin24.6°25.4°0%47%SSE 9.7 KM/H
15:00Senin25.1°25.7°0%45%SSE 10.4 KM/H
16:00Senin25.1°25.7°0%45%SSE 11.9 KM/H
17:00Senin24.7°25.5°0%46%SSE 13.3 KM/H
18:00Senin24°25.3°0%54%SSE 11.9 KM/H
19:00Senin22.4°24.7°0%65%SSE 12.2 KM/H
20:00Senin19.7°19.7°0%77%SSE 14.8 KM/H
21:00Senin17.9°17.9°0%83%SE 15.1 KM/H
22:00Senin16.8°16.8°0%86%SSE 14.4 KM/H
23:00Patchy rain nearby16.4°16.5°64%87%SSE 12.2 KM/H




tutorials